Time;durP1;ratioP1;P1;durP2;ratioP2;P2;SDS_P1;SDS_P2;PMS_P1;PMS_P2;Temp;Humidity;BMP_temperature;BMP_pressure;BME280_temperature;BME280_humidity;BME280_pressure;Samples;Min_cycle;Max_cycle;Signal;HPM_P1;HPM_P2
2021/04/15 00:01:27;;;;;;;3.55;1.60;;;6.10;62.00;;;;;;5041412;28;20083;-67
2021/04/15 00:03:53;;;;;;;4.07;1.80;;;6.20;62.30;;;;;;5035928;28;20349;-67
2021/04/15 00:06:23;;;;;;;4.43;1.85;;;6.10;62.20;;;;;;5032048;28;20116;-67
2021/04/15 00:08:49;;;;;;;4.25;2.15;;;6.10;62.30;;;;;;5030332;28;20113;-67
2021/04/15 00:11:17;;;;;;;2.97;2.38;;;6.00;62.50;;;;;;5012117;28;20061;-66
2021/04/15 00:13:46;;;;;;;2.28;1.60;;;6.10;62.80;;;;;;5031089;28;20025;-66
2021/04/15 00:16:12;;;;;;;3.08;1.67;;;6.00;62.90;;;;;;5042611;28;20033;-67
2021/04/15 00:18:39;;;;;;;5.22;2.00;;;6.00;62.90;;;;;;5033076;28;20036;-66
2021/04/15 00:21:05;;;;;;;4.47;2.10;;;6.00;62.70;;;;;;5041369;28;20102;-66
2021/04/15 00:23:31;;;;;;;3.67;1.88;;;6.10;62.80;;;;;;5028237;28;20025;-66
2021/04/15 00:25:57;;;;;;;7.63;2.25;;;6.10;62.90;;;;;;5034104;28;20031;-66
2021/04/15 00:28:23;;;;;;;2.80;1.80;;;6.00;63.00;;;;;;5034838;28;20030;-67
2021/04/15 00:30:49;;;;;;;3.30;1.80;;;6.00;63.20;;;;;;5014059;28;20404;-68
2021/04/15 00:33:16;;;;;;;3.25;1.60;;;6.00;63.00;;;;;;5041703;28;20112;-67
2021/04/15 00:35:42;;;;;;;4.25;1.70;;;6.00;63.50;;;;;;5033027;28;20021;-67
2021/04/15 00:38:08;;;;;;;6.00;2.30;;;6.00;63.40;;;;;;5029251;28;20361;-67
2021/04/15 00:40:36;;;;;;;3.95;1.75;;;5.90;63.90;;;;;;5013473;28;20038;-67
2021/04/15 00:43:02;;;;;;;3.38;1.77;;;5.90;63.80;;;;;;5031445;28;20025;-67
2021/04/15 00:45:32;;;;;;;2.97;1.58;;;5.90;64.30;;;;;;5033197;28;20032;-67
2021/04/15 00:48:20;;;;;;;3.00;1.75;;;5.80;64.00;;;;;;5038068;28;20138;-68
2021/04/15 00:50:50;;;;;;;3.58;1.80;;;5.80;64.30;;;;;;5047350;28;20071;-67
2021/04/15 00:53:21;;;;;;;5.85;1.63;;;5.80;64.50;;;;;;5031310;28;20424;-67
2021/04/15 00:55:48;;;;;;;5.05;1.90;;;5.80;64.30;;;;;;4997397;28;20037;-67
2021/04/15 00:58:14;;;;;;;7.20;1.50;;;5.70;64.70;;;;;;5013304;28;20478;-67
2021/04/15 01:00:40;;;;;;;6.47;2.75;;;5.70;64.70;;;;;;5029950;28;20046;-67
2021/04/15 01:03:06;;;;;;;3.55;1.65;;;5.70;64.90;;;;;;5035821;28;20074;-67
2021/04/15 01:05:35;;;;;;;4.50;1.98;;;5.70;65.30;;;;;;5032186;28;20025;-67
2021/04/15 01:08:01;;;;;;;2.92;1.80;;;5.70;65.30;;;;;;5038935;28;20116;-67
2021/04/15 01:10:29;;;;;;;4.43;1.90;;;5.70;65.20;;;;;;5029374;28;20474;-67
2021/04/15 01:13:17;;;;;;;4.55;2.00;;;5.70;65.80;;;;;;5026413;28;20203;-67
2021/04/15 01:16:13;;;;;;;4.88;1.77;;;5.80;66.30;;;;;;5033076;28;20025;-66
2021/04/15 01:18:59;;;;;;;3.42;1.70;;;5.70;66.70;;;;;;5018649;28;20038;-66
2021/04/15 01:21:43;;;;;;;5.13;2.65;;;5.70;66.90;;;;;;5032245;28;20042;-66
2021/04/15 01:24:15;;;;;;;3.58;1.95;;;5.60;67.80;;;;;;5046606;28;20048;-66
2021/04/15 01:26:46;;;;;;;5.07;2.13;;;5.70;67.40;;;;;;5011743;28;20042;-66
2021/04/15 01:29:46;;;;;;;3.40;1.90;;;5.60;68.00;;;;;;5047892;28;20075;-66
2021/04/15 01:32:18;;;;;;;5.03;2.10;;;5.70;67.80;;;;;;5017012;28;20114;-66
2021/04/15 01:35:24;;;;;;;4.95;1.90;;;5.60;67.80;;;;;;5032277;28;20041;-67
2021/04/15 01:38:15;;;;;;;2.92;1.92;;;5.60;67.90;;;;;;5034986;28;20033;-67
2021/04/15 01:40:48;;;;;;;3.97;1.90;;;5.60;68.80;;;;;;5031417;28;20052;-67
2021/04/15 01:43:31;;;;;;;5.05;1.80;;;5.60;68.90;;;;;;5038124;28;20043;-68
2021/04/15 01:45:58;;;;;;;5.65;2.33;;;5.60;69.00;;;;;;5034113;28;20041;-69
2021/04/15 01:48:40;;;;;;;4.35;1.90;;;5.60;69.70;;;;;;5041289;28;20032;-68
2021/04/15 01:51:08;;;;;;;3.08;1.80;;;5.60;69.50;;;;;;5040709;28;20026;-68
2021/04/15 01:53:43;;;;;;;4.18;2.17;;;5.60;69.70;;;;;;5030044;28;20029;-67
2021/04/15 01:56:15;;;;;;;3.58;1.98;;;5.50;69.60;;;;;;5030005;28;20044;-67
2021/04/15 01:58:51;;;;;;;4.90;2.10;;;5.60;69.50;;;;;;5031532;28;20044;-67
2021/04/15 02:01:21;;;;;;;5.20;2.40;;;5.60;69.70;;;;;;5030092;28;20064;-68
2021/04/15 02:03:49;;;;;;;8.25;2.30;;;5.60;70.30;;;;;;5051557;28;20024;-67
2021/04/15 02:06:22;;;;;;;6.75;2.20;;;5.50;70.60;;;;;;5031590;28;20033;-68
2021/04/15 02:08:52;;;;;;;4.50;2.08;;;5.60;70.70;;;;;;5011947;28;20030;-67
2021/04/15 02:11:26;;;;;;;4.82;1.88;;;5.50;71.50;;;;;;5020304;28;20018;-68
2021/04/15 02:13:53;;;;;;;4.25;1.83;;;5.50;71.20;;;;;;5012814;28;20113;-67
2021/04/15 02:16:24;;;;;;;3.72;1.98;;;5.50;71.30;;;;;;5038845;28;20072;-66
2021/04/15 02:19:08;;;;;;;5.55;2.30;;;5.50;71.80;;;;;;5017859;28;20029;-67
2021/04/15 02:21:35;;;;;;;5.65;2.30;;;5.50;71.60;;;;;;5031281;28;20041;-67
2021/04/15 02:24:40;;;;;;;4.00;2.20;;;5.60;71.70;;;;;;5044079;28;20033;-66
2021/04/15 02:27:24;;;;;;;5.85;2.30;;;5.50;72.00;;;;;;5011528;28;20042;-67
2021/04/15 02:29:54;;;;;;;5.20;2.22;;;5.50;72.10;;;;;;5014392;28;20037;-67
2021/04/15 02:32:28;;;;;;;5.68;2.40;;;5.50;71.80;;;;;;5028195;28;20570;-67
2021/04/15 02:35:08;;;;;;;6.13;2.15;;;5.50;71.90;;;;;;5035311;28;20025;-67
2021/04/15 02:37:42;;;;;;;4.78;2.22;;;5.50;72.00;;;;;;5048840;28;20033;-67
2021/04/15 02:40:13;;;;;;;3.45;2.10;;;5.40;72.20;;;;;;5036430;28;20045;-67
2021/04/15 02:42:42;;;;;;;4.85;2.20;;;5.50;72.00;;;;;;5041635;28;20045;-67
2021/04/15 02:45:34;;;;;;;3.63;2.15;;;5.50;72.00;;;;;;5035696;28;20034;-67
2021/04/15 02:48:23;;;;;;;4.53;2.40;;;5.40;72.00;;;;;;5029549;28;20363;-66
2021/04/15 02:51:00;;;;;;;4.35;2.33;;;5.50;71.90;;;;;;5031255;28;20029;-66
2021/04/15 02:53:54;;;;;;;4.22;2.60;;;5.40;72.70;;;;;;5028755;28;20099;-66
2021/04/15 02:56:32;;;;;;;6.18;2.63;;;5.40;73.20;;;;;;5027415;28;20037;-65
2021/04/15 02:59:10;;;;;;;5.28;2.65;;;5.40;74.00;;;;;;5011525;28;20038;-65
2021/04/15 03:01:47;;;;;;;5.45;3.00;;;5.30;73.60;;;;;;5030278;28;20054;-67
2021/04/15 03:04:17;;;;;;;5.68;2.80;;;5.30;73.90;;;;;;5031212;28;20695;-68
2021/04/15 03:06:46;;;;;;;7.03;3.28;;;5.30;73.90;;;;;;5014716;28;20025;-68
2021/04/15 03:09:13;;;;;;;6.20;2.85;;;5.30;74.00;;;;;;5032829;28;20036;-69
2021/04/15 03:11:52;;;;;;;6.20;2.65;;;5.30;74.60;;;;;;5043049;28;20025;-68
2021/04/15 03:14:25;;;;;;;5.00;2.80;;;5.30;74.80;;;;;;5030857;28;20065;-68
2021/04/15 03:16:56;;;;;;;5.83;3.37;;;5.30;74.80;;;;;;5034377;28;20029;-68
2021/04/15 03:19:24;;;;;;;6.43;3.17;;;5.30;74.80;;;;;;5050848;28;20025;-68
2021/04/15 03:22:08;;;;;;;8.50;3.03;;;5.30;75.00;;;;;;5034807;28;20583;-66
2021/04/15 03:24:40;;;;;;;5.05;2.97;;;5.30;75.40;;;;;;5051574;28;20025;-66
2021/04/15 03:27:37;;;;;;;6.28;3.40;;;5.30;76.00;;;;;;5040190;28;20090;-66
2021/04/15 03:30:07;;;;;;;7.50;2.95;;;5.30;76.20;;;;;;5050642;28;20118;-66
2021/04/15 03:32:50;;;;;;;6.35;3.42;;;5.30;76.00;;;;;;5043007;28;20032;-66
2021/04/15 03:35:30;;;;;;;8.35;3.58;;;5.20;76.40;;;;;;5032424;28;20025;-66
2021/04/15 03:38:01;;;;;;;6.25;3.40;;;5.20;76.80;;;;;;5037777;28;20040;-66
2021/04/15 03:40:30;;;;;;;9.18;3.55;;;5.20;77.10;;;;;;5042465;28;20048;-66
2021/04/15 03:43:01;;;;;;;7.60;3.40;;;5.20;77.30;;;;;;5032898;28;20045;-66
2021/04/15 03:45:48;;;;;;;10.48;3.60;;;5.20;78.30;;;;;;5033565;28;20022;-66
2021/04/15 03:48:20;;;;;;;9.63;4.00;;;5.20;78.20;;;;;;5018608;28;20072;-66
2021/04/15 03:51:00;;;;;;;6.88;3.17;;;5.20;78.90;;;;;;5015885;28;20450;-66
2021/04/15 03:53:48;;;;;;;10.00;3.33;;;5.20;79.10;;;;;;5045982;28;20036;-66
2021/04/15 03:56:29;;;;;;;7.20;3.50;;;5.20;78.90;;;;;;5033198;28;20029;-66
2021/04/15 03:59:11;;;;;;;8.82;3.22;;;5.20;78.90;;;;;;5020282;28;20036;-67
2021/04/15 04:01:42;;;;;;;6.50;3.08;;;5.20;79.50;;;;;;5034011;28;20123;-67
2021/04/15 04:04:24;;;;;;;5.60;3.00;;;5.20;79.20;;;;;;5045197;28;20040;-66
2021/04/15 04:06:51;;;;;;;7.40;3.38;;;5.20;79.40;;;;;;5039860;28;20034;-65
2021/04/15 04:09:24;;;;;;;7.55;3.35;;;5.20;79.50;;;;;;5041224;28;20051;-66
2021/04/15 04:11:52;;;;;;;7.55;3.45;;;5.20;79.40;;;;;;5035772;28;20024;-66
2021/04/15 04:14:25;;;;;;;7.05;3.28;;;5.20;79.60;;;;;;5030200;28;20075;-66
2021/04/15 04:17:03;;;;;;;7.97;3.53;;;5.30;79.80;;;;;;5027649;28;20022;-66
2021/04/15 04:19:42;;;;;;;8.02;3.50;;;5.20;79.60;;;;;;5033669;28;20033;-66
2021/04/15 04:22:34;;;;;;;5.05;2.88;;;5.20;79.80;;;;;;5032578;28;20041;-66
2021/04/15 04:25:32;;;;;;;6.47;3.50;;;5.10;80.20;;;;;;5013751;28;20121;-67
2021/04/15 04:28:00;;;;;;;7.13;3.15;;;5.10;80.90;;;;;;5025955;28;20060;-67
2021/04/15 04:30:37;;;;;;;8.13;2.97;;;5.00;80.80;;;;;;5033456;28;20037;-67
2021/04/15 04:33:05;;;;;;;7.93;2.55;;;5.00;81.40;;;;;;5034907;28;20025;-67
2021/04/15 04:35:36;;;;;;;7.10;3.00;;;5.10;81.00;;;;;;5033472;28;20059;-67
2021/04/15 04:38:05;;;;;;;6.95;3.17;;;5.00;81.20;;;;;;5031727;28;20042;-67
2021/04/15 04:40:38;;;;;;;6.18;2.72;;;5.00;81.40;;;;;;5042456;28;20028;-67
2021/04/15 04:43:13;;;;;;;9.35;3.25;;;5.10;81.50;;;;;;5040633;28;20551;-67
2021/04/15 04:45:39;;;;;;;9.23;3.50;;;5.10;82.10;;;;;;5033071;28;20025;-66
2021/04/15 04:48:26;;;;;;;8.80;2.88;;;5.10;81.80;;;;;;5045152;28;20032;-67
2021/04/15 04:51:12;;;;;;;6.45;3.22;;;5.10;81.80;;;;;;5052703;28;20025;-66
2021/04/15 04:53:43;;;;;;;5.65;3.35;;;5.20;81.90;;;;;;5033111;28;20032;-66
2021/04/15 04:56:21;;;;;;;10.30;3.30;;;5.20;81.80;;;;;;5050976;28;20104;-66
2021/04/15 04:58:51;;;;;;;8.15;3.58;;;5.20;83.30;;;;;;5040847;28;20033;-66
2021/04/15 05:01:18;;;;;;;5.88;2.90;;;5.20;83.30;;;;;;5029445;28;20127;-68
2021/04/15 05:03:44;;;;;;;7.38;3.10;;;5.20;83.70;;;;;;5047717;28;20421;-68
2021/04/15 05:06:21;;;;;;;6.43;2.90;;;5.20;83.90;;;;;;5017442;28;20033;-66
2021/04/15 05:09:01;;;;;;;5.10;3.35;;;5.20;83.20;;;;;;5012962;28;20099;-69
2021/04/15 05:11:29;;;;;;;6.32;3.05;;;5.30;83.00;;;;;;5018122;28;20083;-67
2021/04/15 05:13:55;;;;;;;7.68;3.15;;;5.40;82.90;;;;;;5047898;28;20021;-67
2021/04/15 05:16:22;;;;;;;7.90;3.40;;;5.40;83.30;;;;;;5023053;28;20033;-67
2021/04/15 05:18:47;;;;;;;8.93;2.95;;;5.50;83.00;;;;;;5030399;28;20030;-68
2021/04/15 05:21:18;;;;;;;7.60;3.47;;;5.60;82.80;;;;;;5031211;28;20059;-68
2021/04/15 05:23:48;;;;;;;6.88;3.53;;;5.60;83.10;;;;;;5032198;28;20063;-67
2021/04/15 05:26:22;;;;;;;8.35;4.00;;;5.60;83.20;;;;;;5031646;28;20072;-67
2021/04/15 05:28:49;;;;;;;7.40;3.33;;;5.70;83.20;;;;;;5048123;28;20044;-67
2021/04/15 05:31:18;;;;;;;8.68;4.78;;;5.70;83.70;;;;;;5035744;28;20405;-68
2021/04/15 05:33:44;;;;;;;10.85;4.18;;;5.70;83.00;;;;;;5051303;28;20052;-68
2021/04/15 05:36:22;;;;;;;9.90;3.95;;;5.80;82.90;;;;;;5023292;28;20038;-67
2021/04/15 05:38:51;;;;;;;9.60;3.88;;;5.80;82.70;;;;;;5028910;28;20068;-67
2021/04/15 05:41:33;;;;;;;9.43;3.55;;;5.80;82.40;;;;;;5029693;28;20140;-67
2021/04/15 05:44:19;;;;;;;7.70;3.33;;;5.90;82.30;;;;;;5039495;28;20032;-67
2021/04/15 05:46:48;;;;;;;8.52;3.55;;;5.90;82.10;;;;;;5032241;28;20590;-67
2021/04/15 05:49:24;;;;;;;11.93;3.42;;;5.90;82.20;;;;;;5031472;28;20033;-67
2021/04/15 05:52:07;;;;;;;8.38;3.80;;;5.90;82.20;;;;;;5015732;28;20092;-68
2021/04/15 05:54:35;;;;;;;7.65;2.92;;;5.90;81.90;;;;;;5040161;28;20040;-67
2021/04/15 05:57:19;;;;;;;7.57;3.15;;;5.90;81.60;;;;;;5048276;28;20473;-67
2021/04/15 06:00:05;;;;;;;10.75;3.08;;;6.00;81.20;;;;;;5044749;28;20095;-67
2021/04/15 06:02:50;;;;;;;7.45;2.80;;;6.00;80.70;;;;;;5027336;28;20449;-67
2021/04/15 06:05:30;;;;;;;8.65;3.38;;;6.00;80.50;;;;;;5025052;28;20014;-68
2021/04/15 06:08:00;;;;;;;6.60;2.92;;;6.10;80.40;;;;;;5032715;28;20593;-68
2021/04/15 06:10:29;;;;;;;5.28;2.95;;;6.10;80.20;;;;;;5031572;28;20466;-68
2021/04/15 06:13:01;;;;;;;5.30;2.58;;;6.00;80.20;;;;;;5034784;28;20029;-68
2021/04/15 06:15:37;;;;;;;4.93;3.10;;;6.00;79.70;;;;;;5040405;28;20022;-68
2021/04/15 06:18:13;;;;;;;6.10;2.72;;;6.00;79.50;;;;;;5025195;28;20525;-67
2021/04/15 06:20:42;;;;;;;6.90;2.88;;;6.10;79.70;;;;;;5030049;28;20038;-67
2021/04/15 06:23:18;;;;;;;6.68;2.80;;;6.10;79.40;;;;;;5042466;28;20049;-67
2021/04/15 06:25:47;;;;;;;7.43;3.38;;;6.10;79.80;;;;;;5015816;28;20446;-67
2021/04/15 06:28:24;;;;;;;4.55;2.70;;;6.20;79.10;;;;;;5029836;28;20179;-66
2021/04/15 06:31:20;;;;;;;6.35;2.47;;;6.20;78.80;;;;;;5029958;28;20490;-67
2021/04/15 06:33:46;;;;;;;5.53;3.00;;;6.20;79.00;;;;;;5050571;28;20025;-68
2021/04/15 06:36:24;;;;;;;6.13;2.90;;;6.20;78.00;;;;;;5033779;28;20509;-68
2021/04/15 06:39:00;;;;;;;4.35;2.70;;;6.30;78.00;;;;;;5031003;28;20018;-68
2021/04/15 06:42:02;;;;;;;7.43;2.97;;;6.20;77.70;;;;;;5028626;28;20026;-68
2021/04/15 06:45:00;;;;;;;6.05;2.70;;;6.20;77.40;;;;;;5030745;28;20076;-68
2021/04/15 06:48:05;;;;;;;5.95;2.80;;;6.30;77.60;;;;;;5038164;28;20060;-68
2021/04/15 06:50:40;;;;;;;8.68;3.30;;;6.30;77.10;;;;;;5024942;28;20056;-67
2021/04/15 06:53:22;;;;;;;4.38;2.25;;;6.30;77.10;;;;;;5029593;28;20026;-66
2021/04/15 06:56:14;;;;;;;4.93;2.40;;;6.30;76.90;;;;;;5030767;28;20057;-67
2021/04/15 06:59:04;;;;;;;5.13;2.65;;;6.30;76.90;;;;;;5050128;28;20035;-67
2021/04/15 07:01:57;;;;;;;5.20;2.45;;;6.30;76.80;;;;;;5035421;28;20053;-68
2021/04/15 07:04:41;;;;;;;4.22;2.45;;;6.30;77.00;;;;;;5034305;28;20152;-67
2021/04/15 07:07:13;;;;;;;4.97;2.80;;;6.40;76.90;;;;;;5032447;28;20041;-67
2021/04/15 07:09:57;;;;;;;6.85;3.25;;;6.40;76.70;;;;;;5034535;28;20417;-68
2021/04/15 07:13:00;;;;;;;5.10;2.73;;;6.40;76.80;;;;;;5039020;28;20052;-68
2021/04/15 07:15:50;;;;;;;6.53;2.42;;;6.50;76.70;;;;;;5031813;28;20112;-70
2021/04/15 07:18:57;;;;;;;7.13;2.35;;;6.60;76.70;;;;;;5038477;28;20037;-68
2021/04/15 07:21:47;;;;;;;4.82;2.55;;;6.70;76.40;;;;;;5035784;28;20037;-68
2021/04/15 07:24:48;;;;;;;6.85;2.70;;;6.70;75.90;;;;;;5035848;28;20496;-68
2021/04/15 07:27:48;;;;;;;3.97;2.15;;;6.80;75.10;;;;;;5024594;28;20037;-67
2021/04/15 07:30:29;;;;;;;6.38;2.63;;;6.80;75.10;;;;;;5003809;28;20025;-68
2021/04/15 07:33:01;;;;;;;4.60;2.35;;;6.80;74.80;;;;;;5024157;28;20034;-69
2021/04/15 07:35:32;;;;;;;7.10;2.10;;;6.90;74.90;;;;;;5013640;28;20033;-69
2021/04/15 07:38:25;;;;;;;2.88;1.90;;;7.00;74.70;;;;;;5033811;28;20096;-68
2021/04/15 07:41:04;;;;;;;4.57;1.90;;;7.00;74.00;;;;;;5029865;28;20040;-68
2021/04/15 07:43:43;;;;;;;4.93;1.70;;;7.10;73.80;;;;;;5041119;28;20040;-68
2021/04/15 07:46:26;;;;;;;4.25;2.17;;;7.20;73.00;;;;;;5033762;28;20028;-68
2021/04/15 07:49:50;;;;;;;6.25;2.67;;;7.20;72.60;;;;;;5019764;28;20076;-68
2021/04/15 07:52:32;;;;;;;7.20;1.83;;;7.40;72.40;;;;;;5007364;28;20059;-67
2021/04/15 07:55:40;;;;;;;4.75;2.22;;;7.50;72.60;;;;;;5026789;28;20033;-68
2021/04/15 07:59:03;;;;;;;3.72;1.80;;;7.60;71.20;;;;;;5031379;28;20029;-68
2021/04/15 08:02:06;;;;;;;5.85;2.08;;;7.70;69.30;;;;;;5017176;28;20045;-68
2021/04/15 08:05:17;;;;;;;6.13;2.13;;;7.70;68.80;;;;;;5029531;28;20473;-69
2021/04/15 08:08:05;;;;;;;4.88;2.40;;;7.70;66.10;;;;;;5025390;28;20033;-68
2021/04/15 08:11:14;;;;;;;4.20;1.85;;;7.70;66.80;;;;;;5031896;28;20032;-68
2021/04/15 08:14:12;;;;;;;5.10;2.00;;;7.70;65.80;;;;;;4989302;28;20070;-67
2021/04/15 08:17:12;;;;;;;6.32;1.85;;;7.80;65.90;;;;;;5041172;28;20036;-68
2021/04/15 08:20:05;;;;;;;3.15;1.88;;;7.80;65.50;;;;;;5033198;28;20044;-69
2021/04/15 08:23:01;;;;;;;3.20;1.85;;;7.90;64.90;;;;;;5038828;28;20439;-70
2021/04/15 08:26:03;;;;;;;5.55;2.05;;;8.00;64.80;;;;;;5013524;28;20124;-69
2021/04/15 08:29:06;;;;;;;4.38;1.70;;;8.20;64.70;;;;;;5037557;28;20040;-69
2021/04/15 08:31:57;;;;;;;2.70;1.60;;;8.30;63.90;;;;;;5026676;28;20041;-68
2021/04/15 08:34:35;;;;;;;4.95;2.10;;;8.30;61.00;;;;;;5024376;28;20072;-69
2021/04/15 08:37:06;;;;;;;5.70;1.75;;;8.20;60.80;;;;;;5035395;28;20032;-69
2021/04/15 08:40:02;;;;;;;3.60;1.58;;;8.30;61.00;;;;;;5053075;28;20036;-69
2021/04/15 08:42:50;;;;;;;2.35;1.25;;;8.30;59.40;;;;;;5023018;28;20041;-69
2021/04/15 08:45:34;;;;;;;2.80;1.50;;;8.20;58.70;;;;;;5015408;28;20025;-69
2021/04/15 08:48:25;;;;;;;6.07;1.80;;;8.10;57.50;;;;;;5030133;28;20120;-69
2021/04/15 08:51:00;;;;;;;2.90;1.52;;;8.00;58.30;;;;;;5032304;28;20505;-68
2021/04/15 08:53:36;;;;;;;2.78;1.95;;;8.10;59.00;;;;;;5024967;28;20501;-68
2021/04/15 08:56:11;;;;;;;2.97;1.73;;;8.20;57.40;;;;;;5032257;28;20029;-68
2021/04/15 08:59:10;;;;;;;4.95;1.60;;;8.10;57.50;;;;;;5027700;28;20091;-68
2021/04/15 09:02:03;;;;;;;2.67;1.38;;;8.10;57.80;;;;;;5032116;28;20053;-68
2021/04/15 09:04:43;;;;;;;5.00;1.60;;;8.10;57.30;;;;;;5030254;28;20188;-68
2021/04/15 09:07:11;;;;;;;3.28;1.25;;;8.20;57.50;;;;;;5030289;28;20032;-67
2021/04/15 09:09:55;;;;;;;2.38;1.40;;;8.30;57.30;;;;;;5028120;28;20037;-68
2021/04/15 09:13:07;;;;;;;5.13;1.40;;;8.40;55.20;;;;;;5028269;28;20437;-68
2021/04/15 09:16:05;;;;;;;1.45;0.80;;;8.40;56.00;;;;;;5030821;28;20045;-68
2021/04/15 09:19:11;;;;;;;2.50;1.58;;;8.50;54.60;;;;;;5031389;28;20052;-68
2021/04/15 09:22:10;;;;;;;3.15;1.55;;;8.70;54.50;;;;;;5006309;28;20552;-68
2021/04/15 09:24:47;;;;;;;2.78;1.00;;;8.80;52.90;;;;;;5031571;28;20025;-68
2021/04/15 09:27:32;;;;;;;0.77;0.70;;;8.90;51.20;;;;;;5029933;28;20021;-68
2021/04/15 09:30:19;;;;;;;2.53;1.00;;;8.90;49.00;;;;;;5031646;28;20410;-68
2021/04/15 09:33:16;;;;;;;2.75;1.00;;;8.90;48.40;;;;;;5031206;28;20058;-68
2021/04/15 09:36:09;;;;;;;2.17;0.80;;;8.90;47.30;;;;;;5031091;28;20071;-69
2021/04/15 09:38:55;;;;;;;2.22;0.93;;;8.90;48.40;;;;;;5031229;28;20021;-68
2021/04/15 09:41:47;;;;;;;2.22;1.00;;;8.90;48.20;;;;;;5031272;28;20520;-68
2021/04/15 09:44:36;;;;;;;2.90;1.25;;;9.00;48.00;;;;;;5028322;28;20037;-69
2021/04/15 09:47:23;;;;;;;1.60;1.00;;;9.20;48.00;;;;;;5030371;28;20029;-68
2021/04/15 09:50:07;;;;;;;2.53;1.15;;;9.30;47.90;;;;;;5030847;28;20052;-68
2021/04/15 09:52:55;;;;;;;2.67;1.10;;;9.30;46.90;;;;;;5031661;28;20029;-69
2021/04/15 09:55:46;;;;;;;1.90;1.10;;;9.30;45.70;;;;;;5031968;28;20515;-68
2021/04/15 09:58:19;;;;;;;3.45;1.60;;;9.30;46.60;;;;;;5024474;28;20037;-69
2021/04/15 10:00:49;;;;;;;3.10;1.45;;;9.20;46.20;;;;;;5029349;28;20041;-68
2021/04/15 10:03:42;;;;;;;5.40;1.23;;;9.20;46.60;;;;;;5029517;28;20116;-68
2021/04/15 10:06:21;;;;;;;3.20;1.10;;;9.30;46.40;;;;;;5031376;28;20508;-69
2021/04/15 10:09:03;;;;;;;4.20;1.45;;;9.30;45.90;;;;;;5012811;28;20030;-69
2021/04/15 10:11:49;;;;;;;3.15;1.27;;;9.30;45.30;;;;;;5031233;28;20060;-69
2021/04/15 10:14:29;;;;;;;3.47;1.80;;;9.20;45.10;;;;;;5028115;28;20105;-68
2021/04/15 10:17:33;;;;;;;1.85;1.20;;;9.10;45.10;;;;;;5007771;28;20125;-68
2021/04/15 10:20:28;;;;;;;3.13;0.95;;;9.10;44.10;;;;;;5021277;28;20065;-69
2021/04/15 10:23:15;;;;;;;1.73;0.90;;;9.10;44.40;;;;;;5025669;28;20034;-69
2021/04/15 10:25:44;;;;;;;1.33;0.90;;;9.10;44.20;;;;;;5029131;28;20049;-67
2021/04/15 10:28:29;;;;;;;1.23;1.00;;;9.10;44.30;;;;;;5031701;28;20391;-69
2021/04/15 10:31:25;;;;;;;2.03;1.42;;;9.20;43.60;;;;;;5030826;28;20029;-70
2021/04/15 10:34:06;;;;;;;3.05;1.20;;;9.30;43.50;;;;;;5032184;28;20041;-68
2021/04/15 10:36:53;;;;;;;4.28;1.00;;;9.30;43.90;;;;;;5035203;28;20484;-69
2021/04/15 10:39:43;;;;;;;5.13;0.93;;;9.30;44.30;;;;;;5034904;28;20014;-69
2021/04/15 10:42:36;;;;;;;3.05;1.02;;;9.30;43.60;;;;;;5034670;28;20037;-69
2021/04/15 10:45:26;;;;;;;1.92;1.13;;;9.10;43.80;;;;;;5035394;28;20025;-70
2021/04/15 10:48:06;;;;;;;5.75;1.25;;;9.20;44.50;;;;;;5033240;28;20449;-69
2021/04/15 10:50:56;;;;;;;2.40;1.60;;;9.20;44.40;;;;;;5034853;28;20034;-70
2021/04/15 10:53:43;;;;;;;2.05;1.20;;;9.20;44.20;;;;;;5034541;28;20072;-69
2021/04/15 10:56:22;;;;;;;1.15;0.73;;;9.20;44.30;;;;;;5034227;28;20025;-69
2021/04/15 10:59:09;;;;;;;1.83;1.00;;;9.20;44.10;;;;;;5033968;28;20455;-70
2021/04/15 11:01:44;;;;;;;2.65;1.15;;;9.20;44.40;;;;;;5000203;28;20053;-68
2021/04/15 11:04:09;;;;;;;1.85;1.00;;;9.30;44.80;;;;;;5025882;28;20021;-69
2021/04/15 11:06:45;;;;;;;1.55;1.05;;;9.50;45.30;;;;;;5032954;28;20029;-69
2021/04/15 11:09:44;;;;;;;1.70;1.02;;;9.60;45.10;;;;;;5024838;28;20033;-68
2021/04/15 11:12:12;;;;;;;2.05;1.02;;;9.60;44.70;;;;;;5009176;28;20053;-69
2021/04/15 11:14:44;;;;;;;4.30;1.10;;;9.60;44.50;;;;;;5033237;28;20048;-69
2021/04/15 11:17:20;;;;;;;2.47;1.05;;;9.60;44.40;;;;;;5034851;28;20398;-69
2021/04/15 11:19:47;;;;;;;3.35;1.67;;;9.50;44.50;;;;;;5032848;28;20474;-69
2021/04/15 11:22:30;;;;;;;2.92;1.02;;;9.60;45.10;;;;;;5033334;28;20605;-70
2021/04/15 11:25:24;;;;;;;2.85;1.30;;;9.70;45.00;;;;;;5033181;28;20348;-71
2021/04/15 11:27:51;;;;;;;2.88;1.33;;;9.80;45.60;;;;;;5034460;28;20424;-69
2021/04/15 11:30:41;;;;;;;2.60;1.40;;;9.80;45.80;;;;;;5032286;28;20021;-70
2021/04/15 11:33:09;;;;;;;2.22;1.20;;;9.70;45.70;;;;;;5033908;28;20025;-70
2021/04/15 11:35:35;;;;;;;7.95;1.77;;;9.70;45.70;;;;;;5033335;28;20548;-69
2021/04/15 11:38:13;;;;;;;5.30;1.75;;;9.60;46.30;;;;;;5008016;28;20045;-70
2021/04/15 11:40:42;;;;;;;3.88;1.50;;;9.70;46.60;;;;;;5016721;28;20029;-70
2021/04/15 11:43:26;;;;;;;5.10;1.70;;;9.80;46.60;;;;;;5034078;28;20038;-70
2021/04/15 11:45:53;;;;;;;2.97;1.27;;;9.90;47.10;;;;;;5048869;28;20025;-70
2021/04/15 11:48:28;;;;;;;3.08;1.25;;;9.90;47.20;;;;;;5034065;28;20451;-69
2021/04/15 11:51:12;;;;;;;;;;;9.80;47.10;;;;;;5032698;28;20033;-70
2021/04/15 11:53:50;;;;;;;2.00;1.10;;;9.80;47.80;;;;;;5033427;28;19920;-70
2021/04/15 11:56:28;;;;;;;3.35;0.80;;;9.70;47.50;;;;;;5032370;28;20029;-70
2021/04/15 11:59:12;;;;;;;2.17;1.67;;;9.60;48.10;;;;;;5016693;28;20359;-70
2021/04/15 12:01:37;;;;;;;3.00;1.50;;;9.60;48.40;;;;;;5018744;28;20045;-69
2021/04/15 12:04:08;;;;;;;5.20;1.30;;;9.60;48.10;;;;;;5002818;28;20425;-70
2021/04/15 12:06:44;;;;;;;2.00;1.00;;;9.60;47.50;;;;;;5033808;28;20038;-70
2021/04/15 12:09:17;;;;;;;4.85;1.10;;;9.60;46.90;;;;;;5043804;28;20537;-69
2021/04/15 12:12:01;;;;;;;6.20;1.30;;;9.50;47.70;;;;;;5034251;28;20035;-69
2021/04/15 12:14:27;;;;;;;3.50;1.20;;;9.50;48.50;;;;;;5033056;28;20572;-69
2021/04/15 12:17:18;;;;;;;2.25;1.00;;;9.40;48.20;;;;;;5030992;28;20030;-70
2021/04/15 12:20:08;;;;;;;2.28;1.25;;;9.40;48.10;;;;;;5032126;28;20446;-70
2021/04/15 12:22:56;;;;;;;2.28;1.30;;;9.40;48.30;;;;;;5027614;28;20037;-69
2021/04/15 12:25:48;;;;;;;2.92;1.30;;;9.40;48.30;;;;;;5047636;28;20572;-68
2021/04/15 12:28:19;;;;;;;3.35;1.25;;;9.40;48.10;;;;;;5036848;28;20041;-69
2021/04/15 12:30:46;;;;;;;3.90;1.48;;;9.40;48.10;;;;;;5013383;28;20529;-69
2021/04/15 12:33:22;;;;;;;2.65;1.55;;;9.40;48.00;;;;;;5034115;28;20371;-69
2021/04/15 12:36:06;;;;;;;3.60;1.05;;;9.40;48.20;;;;;;5024987;28;20044;-69
2021/04/15 12:38:45;;;;;;;1.60;1.00;;;9.50;48.30;;;;;;5046722;28;20512;-69
2021/04/15 12:41:12;;;;;;;1.83;1.13;;;9.40;48.00;;;;;;5032011;28;20033;-70
2021/04/15 12:43:47;;;;;;;1.10;0.85;;;9.40;47.80;;;;;;5030479;28;20029;-69
2021/04/15 12:46:22;;;;;;;1.83;1.08;;;9.40;47.50;;;;;;5032017;28;20083;-69
2021/04/15 12:48:55;;;;;;;2.45;1.25;;;9.30;47.10;;;;;;5030955;28;20025;-70
2021/04/15 12:51:30;;;;;;;2.80;1.27;;;9.40;47.30;;;;;;5038941;28;20037;-69
2021/04/15 12:54:01;;;;;;;2.45;1.20;;;9.50;47.30;;;;;;5032200;28;20393;-69
2021/04/15 12:56:48;;;;;;;4.07;1.20;;;9.50;47.70;;;;;;5030931;28;20129;-69
2021/04/15 12:59:24;;;;;;;3.53;1.65;;;9.70;47.90;;;;;;5032320;28;20033;-70
2021/04/15 13:01:50;;;;;;;3.05;1.27;;;9.80;47.30;;;;;;5019967;28;20044;-69
2021/04/15 13:04:22;;;;;;;2.35;1.30;;;9.90;47.30;;;;;;5032749;28;20025;-69
2021/04/15 13:07:00;;;;;;;3.63;1.27;;;10.00;46.80;;;;;;5031955;28;20635;-69
2021/04/15 13:09:44;;;;;;;2.55;1.17;;;10.00;46.70;;;;;;5040472;28;20385;-69
2021/04/15 13:12:30;;;;;;;4.38;1.40;;;10.10;46.60;;;;;;5037756;28;20104;-69
2021/04/15 13:14:59;;;;;;;2.88;1.30;;;10.10;46.00;;;;;;5033887;28;20053;-69
2021/04/15 13:17:40;;;;;;;3.45;1.15;;;10.00;45.60;;;;;;5029315;28;20037;-69
2021/04/15 13:20:20;;;;;;;1.92;1.20;;;10.00;45.40;;;;;;5012561;28;20022;-69
2021/04/15 13:23:14;;;;;;;3.50;1.48;;;10.00;45.20;;;;;;5026121;28;20045;-69
2021/04/15 13:25:52;;;;;;;3.22;1.63;;;9.90;45.30;;;;;;5013959;28;20421;-70
2021/04/15 13:28:20;;;;;;;2.42;1.25;;;10.00;44.70;;;;;;5030096;28;20482;-70
2021/04/15 13:30:46;;;;;;;3.60;1.30;;;9.90;45.10;;;;;;5036689;28;20056;-69
2021/04/15 13:33:15;;;;;;;2.78;1.23;;;9.90;45.40;;;;;;5031642;28;20063;-68
2021/04/15 13:35:47;;;;;;;2.78;1.33;;;9.90;44.00;;;;;;5037429;28;20024;-69
2021/04/15 13:40:59;;;;;;;2.55;1.10;;;9.80;43.40;;;;;;5031021;28;20516;-68
2021/04/15 13:43:37;;;;;;;2.42;1.20;;;9.70;43.40;;;;;;5038166;28;20032;-69
2021/04/15 13:46:30;;;;;;;1.98;0.85;;;9.70;43.10;;;;;;5026986;28;20036;-68
2021/04/15 13:49:12;;;;;;;4.45;1.40;;;9.70;43.40;;;;;;5035846;28;20033;-69
2021/04/15 13:51:49;;;;;;;1.60;1.10;;;9.70;43.30;;;;;;5032336;28;20410;-69
2021/04/15 13:54:21;;;;;;;2.42;1.20;;;9.70;42.70;;;;;;5020909;28;20086;-69
2021/04/15 13:56:49;;;;;;;1.38;0.90;;;9.70;42.30;;;;;;5033639;28;20021;-71
2021/04/15 13:59:46;;;;;;;3.30;1.25;;;9.70;42.50;;;;;;5013254;28;20021;-70
2021/04/15 14:02:14;;;;;;;2.50;1.13;;;9.60;42.20;;;;;;5031064;28;20570;-69
2021/04/15 14:04:40;;;;;;;2.63;1.20;;;9.60;42.90;;;;;;5025762;28;20017;-69